sensor_id;sensor_type;location;lat;lon;timestamp;pressure;altitude;pressure_sealevel;temperature;humidity
12913;BME280;6524;51.368;11.984;2023-02-21T00:02:49;100317.59;;;17.23;55.22
12913;BME280;6524;51.368;11.984;2023-02-21T00:08:09;100320.53;;;16.74;56.41
12913;BME280;6524;51.368;11.984;2023-02-21T00:13:28;100320.78;;;17.00;55.91
12913;BME280;6524;51.368;11.984;2023-02-21T00:18:48;100314.97;;;17.38;54.67
12913;BME280;6524;51.368;11.984;2023-02-21T00:24:11;100311.94;;;17.58;54.01
12913;BME280;6524;51.368;11.984;2023-02-21T00:29:31;100314.03;;;17.24;54.96
12913;BME280;6524;51.368;11.984;2023-02-21T00:34:51;100328.13;;;17.80;53.46
12913;BME280;6524;51.368;11.984;2023-02-21T00:40:11;100311.25;;;17.54;54.68
12913;BME280;6524;51.368;11.984;2023-02-21T00:45:31;100311.47;;;17.80;53.31
12913;BME280;6524;51.368;11.984;2023-02-21T00:50:51;100309.88;;;17.06;55.36
12913;BME280;6524;51.368;11.984;2023-02-21T00:56:10;100300.25;;;17.48;54.34
12913;BME280;6524;51.368;11.984;2023-02-21T01:06:49;100312.91;;;18.25;52.27
12913;BME280;6524;51.368;11.984;2023-02-21T01:12:09;100297.56;;;17.91;53.33
12913;BME280;6524;51.368;11.984;2023-02-21T01:17:28;100316.19;;;18.29;52.74
12913;BME280;6524;51.368;11.984;2023-02-21T01:22:47;100322.22;;;18.31;52.68
12913;BME280;6524;51.368;11.984;2023-02-21T01:28:06;100318.72;;;18.03;53.15
12913;BME280;6524;51.368;11.984;2023-02-21T01:33:25;100319.72;;;17.88;53.73
12913;BME280;6524;51.368;11.984;2023-02-21T01:38:45;100315.94;;;17.92;53.89
12913;BME280;6524;51.368;11.984;2023-02-21T01:44:40;100313.97;;;17.96;53.87
12913;BME280;6524;51.368;11.984;2023-02-21T01:50:01;100308.69;;;17.96;53.55
12913;BME280;6524;51.368;11.984;2023-02-21T01:55:21;100309.22;;;18.01;53.85
12913;BME280;6524;51.368;11.984;2023-02-21T02:00:40;100308.03;;;18.19;53.51
12913;BME280;6524;51.368;11.984;2023-02-21T02:06:02;100298.72;;;17.72;54.74
12913;BME280;6524;51.368;11.984;2023-02-21T02:22:31;100287.56;;;17.40;55.65
12913;BME280;6524;51.368;11.984;2023-02-21T02:27:43;100278.78;;;17.54;55.85
12913;BME280;6524;51.368;11.984;2023-02-21T02:38:29;100277.06;;;17.67;55.63
12913;BME280;6524;51.368;11.984;2023-02-21T02:43:38;100276.31;;;17.65;56.16
12913;BME280;6524;51.368;11.984;2023-02-21T02:48:50;100263.09;;;17.94;55.28
12913;BME280;6524;51.368;11.984;2023-02-21T02:53:53;100274.13;;;18.53;53.27
12913;BME280;6524;51.368;11.984;2023-02-21T02:59:00;100261.47;;;18.71;52.59
12913;BME280;6524;51.368;11.984;2023-02-21T03:09:26;100258.91;;;18.44;53.47
12913;BME280;6524;51.368;11.984;2023-02-21T03:14:36;100254.88;;;18.64;53.09
12913;BME280;6524;51.368;11.984;2023-02-21T03:19:39;100251.28;;;17.99;54.69
12913;BME280;6524;51.368;11.984;2023-02-21T03:24:43;100259.72;;;18.32;54.01
12913;BME280;6524;51.368;11.984;2023-02-21T03:29:46;100248.53;;;18.41;53.75
12913;BME280;6524;51.368;11.984;2023-02-21T03:34:46;100247.91;;;18.50;54.18
12913;BME280;6524;51.368;11.984;2023-02-21T03:39:47;100251.94;;;18.68;52.96
12913;BME280;6524;51.368;11.984;2023-02-21T03:44:47;100251.38;;;18.38;53.38
12913;BME280;6524;51.368;11.984;2023-02-21T05:01:02;100242.00;;;18.59;53.59
12913;BME280;6524;51.368;11.984;2023-02-21T05:06:03;100230.53;;;18.20;54.57
12913;BME280;6524;51.368;11.984;2023-02-21T05:11:03;100227.94;;;17.93;55.38
12913;BME280;6524;51.368;11.984;2023-02-21T05:16:04;100219.25;;;17.37;56.92
12913;BME280;6524;51.368;11.984;2023-02-21T05:21:05;100211.50;;;16.93;58.66
12913;BME280;6524;51.368;11.984;2023-02-21T05:26:10;100228.94;;;16.65;59.50
12913;BME280;6524;51.368;11.984;2023-02-21T05:31:11;100252.88;;;16.60;59.58
12913;BME280;6524;51.368;11.984;2023-02-21T05:36:11;100258.22;;;17.03;58.44
12913;BME280;6524;51.368;11.984;2023-02-21T05:41:12;100271.69;;;16.99;58.42
12913;BME280;6524;51.368;11.984;2023-02-21T05:46:23;100258.19;;;17.32;57.64
12913;BME280;6524;51.368;11.984;2023-02-21T05:51:24;100263.16;;;16.65;59.12
12913;BME280;6524;51.368;11.984;2023-02-21T05:56:25;100273.84;;;17.06;57.79
12913;BME280;6524;51.368;11.984;2023-02-21T06:01:25;100279.75;;;17.39;56.77
12913;BME280;6524;51.368;11.984;2023-02-21T06:06:25;100283.09;;;17.84;56.29
12913;BME280;6524;51.368;11.984;2023-02-21T06:11:31;100298.38;;;17.50;56.83
12913;BME280;6524;51.368;11.984;2023-02-21T06:16:34;100295.91;;;17.90;55.49
12913;BME280;6524;51.368;11.984;2023-02-21T06:21:35;100304.03;;;18.26;55.05
12913;BME280;6524;51.368;11.984;2023-02-21T06:26:36;100310.78;;;18.18;55.18
12913;BME280;6524;51.368;11.984;2023-02-21T06:31:37;100316.13;;;18.43;54.77
12913;BME280;6524;51.368;11.984;2023-02-21T06:36:37;100320.81;;;18.65;54.13
12913;BME280;6524;51.368;11.984;2023-02-21T06:41:38;100336.31;;;18.17;54.89
12913;BME280;6524;51.368;11.984;2023-02-21T06:46:39;100337.22;;;17.89;55.24
12913;BME280;6524;51.368;11.984;2023-02-21T06:51:40;100340.72;;;17.75;56.35
12913;BME280;6524;51.368;11.984;2023-02-21T06:56:42;100335.59;;;18.55;54.52
12913;BME280;6524;51.368;11.984;2023-02-21T07:01:43;100345.19;;;18.43;55.18
12913;BME280;6524;51.368;11.984;2023-02-21T07:06:44;100353.03;;;19.10;56.47
12913;BME280;6524;51.368;11.984;2023-02-21T07:11:44;100351.69;;;20.17;52.96
12913;BME280;6524;51.368;11.984;2023-02-21T07:16:46;100344.94;;;19.76;53.89
12913;BME280;6524;51.368;11.984;2023-02-21T07:21:46;100340.00;;;20.56;52.12
12913;BME280;6524;51.368;11.984;2023-02-21T07:26:47;100338.03;;;22.06;49.01
12913;BME280;6524;51.368;11.984;2023-02-21T07:31:47;100340.38;;;20.15;50.62
12913;BME280;6524;51.368;11.984;2023-02-21T07:36:49;100347.72;;;19.36;52.24
12913;BME280;6524;51.368;11.984;2023-02-21T07:41:49;100345.72;;;18.61;54.11
12913;BME280;6524;51.368;11.984;2023-02-21T07:46:50;100348.91;;;18.66;54.33
12913;BME280;6524;51.368;11.984;2023-02-21T07:51:50;100354.31;;;19.43;52.00
12913;BME280;6524;51.368;11.984;2023-02-21T07:56:51;100364.56;;;19.35;52.64
12913;BME280;6524;51.368;11.984;2023-02-21T08:01:51;100362.41;;;18.89;54.12
12913;BME280;6524;51.368;11.984;2023-02-21T08:06:58;100365.19;;;19.00;54.15
12913;BME280;6524;51.368;11.984;2023-02-21T08:11:59;100365.06;;;19.14;53.57
12913;BME280;6524;51.368;11.984;2023-02-21T08:17:00;100367.16;;;18.84;55.00
12913;BME280;6524;51.368;11.984;2023-02-21T08:22:00;100373.09;;;19.00;53.35
12913;BME280;6524;51.368;11.984;2023-02-21T08:27:01;100377.34;;;19.15;53.83
12913;BME280;6524;51.368;11.984;2023-02-21T08:32:02;100394.19;;;18.75;54.71
12913;BME280;6524;51.368;11.984;2023-02-21T08:37:02;100387.38;;;19.10;53.96
12913;BME280;6524;51.368;11.984;2023-02-21T08:42:19;100391.06;;;18.95;54.40
12913;BME280;6524;51.368;11.984;2023-02-21T08:47:19;100391.88;;;18.83;54.62
12913;BME280;6524;51.368;11.984;2023-02-21T08:52:20;100394.91;;;18.37;55.59
12913;BME280;6524;51.368;11.984;2023-02-21T08:57:20;100395.81;;;18.36;55.80
12913;BME280;6524;51.368;11.984;2023-02-21T09:02:23;100401.38;;;18.72;55.59
12913;BME280;6524;51.368;11.984;2023-02-21T09:07:28;100405.78;;;18.99;54.66
12913;BME280;6524;51.368;11.984;2023-02-21T09:12:30;100393.47;;;18.58;55.44
12913;BME280;6524;51.368;11.984;2023-02-21T09:17:30;100395.25;;;18.58;55.83
12913;BME280;6524;51.368;11.984;2023-02-21T09:22:33;100386.25;;;18.47;56.30
12913;BME280;6524;51.368;11.984;2023-02-21T09:27:34;100381.94;;;18.73;55.20
12913;BME280;6524;51.368;11.984;2023-02-21T09:32:40;100384.00;;;18.68;55.35
12913;BME280;6524;51.368;11.984;2023-02-21T09:37:42;100377.84;;;18.95;54.48
12913;BME280;6524;51.368;11.984;2023-02-21T09:42:42;100378.41;;;19.26;54.65
12913;BME280;6524;51.368;11.984;2023-02-21T09:47:50;100373.53;;;20.07;52.87
12913;BME280;6524;51.368;11.984;2023-02-21T09:52:55;100374.25;;;21.17;49.25
12913;BME280;6524;51.368;11.984;2023-02-21T09:57:56;100376.41;;;21.12;49.16
12913;BME280;6524;51.368;11.984;2023-02-21T10:08:49;100389.16;;;20.71;49.28
12913;BME280;6524;51.368;11.984;2023-02-21T10:14:17;100398.78;;;20.24;51.22
12913;BME280;6524;51.368;11.984;2023-02-21T10:19:24;100396.38;;;20.45;51.18
12913;BME280;6524;51.368;11.984;2023-02-21T10:24:30;100397.03;;;19.37;53.26
12913;BME280;6524;51.368;11.984;2023-02-21T10:29:49;100402.31;;;19.62;53.17
12913;BME280;6524;51.368;11.984;2023-02-21T10:34:52;100410.25;;;20.25;51.02
12913;BME280;6524;51.368;11.984;2023-02-21T10:40:04;100419.28;;;20.09;51.79
12913;BME280;6524;51.368;11.984;2023-02-21T10:45:11;100423.91;;;19.69;52.04
12913;BME280;6524;51.368;11.984;2023-02-21T10:50:12;100429.56;;;20.01;51.48
12913;BME280;6524;51.368;11.984;2023-02-21T10:55:18;100426.56;;;20.19;50.97
12913;BME280;6524;51.368;11.984;2023-02-21T11:00:38;100424.19;;;20.27;50.83
12913;BME280;6524;51.368;11.984;2023-02-21T11:05:51;100427.63;;;20.77;49.64
12913;BME280;6524;51.368;11.984;2023-02-21T11:10:54;100423.91;;;20.55;50.11
12913;BME280;6524;51.368;11.984;2023-02-21T11:21:18;100405.97;;;20.35;50.10
12913;BME280;6524;51.368;11.984;2023-02-21T11:26:19;100404.44;;;20.20;50.65
12913;BME280;6524;51.368;11.984;2023-02-21T11:31:27;100395.28;;;20.24;50.98
12913;BME280;6524;51.368;11.984;2023-02-21T11:36:40;100385.91;;;20.20;51.25
12913;BME280;6524;51.368;11.984;2023-02-21T11:41:53;100388.53;;;20.92;49.93
12913;BME280;6524;51.368;11.984;2023-02-21T11:52:30;100376.22;;;24.53;40.91
12913;BME280;6524;51.368;11.984;2023-02-21T11:58:14;100376.38;;;24.81;39.32
12913;BME280;6524;51.368;11.984;2023-02-21T12:19:16;100364.97;;;24.40;41.11
12913;BME280;6524;51.368;11.984;2023-02-21T12:35:02;100354.75;;;21.74;45.71
12913;BME280;6524;51.368;11.984;2023-02-21T12:45:47;100350.88;;;22.01;45.61
12913;BME280;6524;51.368;11.984;2023-02-21T12:50:51;100335.97;;;22.21;45.08
12913;BME280;6524;51.368;11.984;2023-02-21T12:55:59;100330.31;;;22.25;45.32
12913;BME280;6524;51.368;11.984;2023-02-21T13:07:02;100332.44;;;21.77;44.71
12913;BME280;6524;51.368;11.984;2023-02-21T13:12:29;100328.16;;;21.97;44.83
12913;BME280;6524;51.368;11.984;2023-02-21T13:17:31;100326.22;;;22.10;45.06
12913;BME280;6524;51.368;11.984;2023-02-21T13:28:51;100321.25;;;21.51;46.29
12913;BME280;6524;51.368;11.984;2023-02-21T13:33:58;100311.69;;;21.25;45.67
12913;BME280;6524;51.368;11.984;2023-02-21T13:39:01;100313.09;;;21.97;44.96
12913;BME280;6524;51.368;11.984;2023-02-21T13:44:12;100310.69;;;21.94;44.46
12913;BME280;6524;51.368;11.984;2023-02-21T14:21:26;100323.88;;;21.62;44.41
12913;BME280;6524;51.368;11.984;2023-02-21T14:26:48;100322.97;;;22.06;44.52
12913;BME280;6524;51.368;11.984;2023-02-21T14:37:09;100325.16;;;22.86;41.95
12913;BME280;6524;51.368;11.984;2023-02-21T14:42:30;100327.72;;;22.35;42.96
12913;BME280;6524;51.368;11.984;2023-02-21T14:47:40;100328.53;;;22.89;41.65
12913;BME280;6524;51.368;11.984;2023-02-21T14:53:06;100326.28;;;22.63;42.71
12913;BME280;6524;51.368;11.984;2023-02-21T15:04:01;100330.66;;;22.53;42.71
12913;BME280;6524;51.368;11.984;2023-02-21T15:09:12;100331.94;;;22.37;42.41
12913;BME280;6524;51.368;11.984;2023-02-21T15:14:16;100325.84;;;22.47;43.15
12913;BME280;6524;51.368;11.984;2023-02-21T15:19:29;100330.75;;;22.83;42.08
12913;BME280;6524;51.368;11.984;2023-02-21T15:24:30;100332.25;;;22.76;41.98
12913;BME280;6524;51.368;11.984;2023-02-21T15:29:30;100326.03;;;23.08;40.71
12913;BME280;6524;51.368;11.984;2023-02-21T15:34:41;100329.50;;;22.87;39.62
12913;BME280;6524;51.368;11.984;2023-02-21T15:39:48;100321.53;;;22.67;39.45
12913;BME280;6524;51.368;11.984;2023-02-21T15:44:56;100326.84;;;23.08;38.74
12913;BME280;6524;51.368;11.984;2023-02-21T16:00:24;100329.56;;;22.76;39.46
12913;BME280;6524;51.368;11.984;2023-02-21T16:05:28;100328.31;;;20.59;43.04
12913;BME280;6524;51.368;11.984;2023-02-21T16:10:30;100329.59;;;20.05;45.45
12913;BME280;6524;51.368;11.984;2023-02-21T16:15:34;100331.84;;;20.59;44.50
12913;BME280;6524;51.368;11.984;2023-02-21T16:20:38;100338.25;;;20.79;44.07
12913;BME280;6524;51.368;11.984;2023-02-21T16:31:25;100344.81;;;20.97;43.39
12913;BME280;6524;51.368;11.984;2023-02-21T16:36:28;100346.72;;;20.84;43.65
12913;BME280;6524;51.368;11.984;2023-02-21T16:41:29;100348.47;;;20.48;44.93
12913;BME280;6524;51.368;11.984;2023-02-21T16:46:29;100354.81;;;20.94;44.16
12913;BME280;6524;51.368;11.984;2023-02-21T16:51:30;100367.75;;;20.50;44.86
12913;BME280;6524;51.368;11.984;2023-02-21T16:56:34;100359.78;;;20.74;44.79
12913;BME280;6524;51.368;11.984;2023-02-21T17:01:39;100360.88;;;20.24;45.74
12913;BME280;6524;51.368;11.984;2023-02-21T17:06:39;100367.72;;;20.63;45.00
12913;BME280;6524;51.368;11.984;2023-02-21T17:11:40;100374.09;;;20.61;45.02
12913;BME280;6524;51.368;11.984;2023-02-21T17:16:41;100382.25;;;20.58;45.67
12913;BME280;6524;51.368;11.984;2023-02-21T17:21:45;100378.34;;;20.50;45.66
12913;BME280;6524;51.368;11.984;2023-02-21T17:26:46;100375.41;;;20.42;45.73
12913;BME280;6524;51.368;11.984;2023-02-21T17:31:51;100372.06;;;20.40;45.62
12913;BME280;6524;51.368;11.984;2023-02-21T17:36:52;100384.34;;;20.04;46.12
12913;BME280;6524;51.368;11.984;2023-02-21T17:41:53;100387.63;;;20.08;46.67
12913;BME280;6524;51.368;11.984;2023-02-21T17:46:55;100385.63;;;19.99;46.93
12913;BME280;6524;51.368;11.984;2023-02-21T17:51:56;100391.50;;;19.91;46.98
12913;BME280;6524;51.368;11.984;2023-02-21T17:56:57;100403.31;;;19.98;46.78
12913;BME280;6524;51.368;11.984;2023-02-21T18:01:57;100399.88;;;19.85;47.25
12913;BME280;6524;51.368;11.984;2023-02-21T18:07:01;100413.19;;;19.58;47.92
12913;BME280;6524;51.368;11.984;2023-02-21T18:12:02;100402.47;;;19.98;47.50
12913;BME280;6524;51.368;11.984;2023-02-21T18:17:03;100412.91;;;20.25;46.61
12913;BME280;6524;51.368;11.984;2023-02-21T18:22:04;100413.31;;;19.82;47.99
12913;BME280;6524;51.368;11.984;2023-02-21T18:27:05;100414.06;;;19.84;48.10
12913;BME280;6524;51.368;11.984;2023-02-21T18:32:06;100425.56;;;19.32;48.79
12913;BME280;6524;51.368;11.984;2023-02-21T18:37:06;100432.59;;;19.71;48.42
12913;BME280;6524;51.368;11.984;2023-02-21T18:42:07;100433.44;;;19.84;48.21
12913;BME280;6524;51.368;11.984;2023-02-21T18:47:08;100438.84;;;20.20;47.11
12913;BME280;6524;51.368;11.984;2023-02-21T18:52:14;100440.00;;;20.28;47.24
12913;BME280;6524;51.368;11.984;2023-02-21T18:57:16;100437.28;;;20.54;46.97
12913;BME280;6524;51.368;11.984;2023-02-21T19:02:17;100432.22;;;20.38;47.28
12913;BME280;6524;51.368;11.984;2023-02-21T19:07:18;100428.38;;;20.42;46.97
12913;BME280;6524;51.368;11.984;2023-02-21T19:12:18;100430.25;;;20.29;47.80
12913;BME280;6524;51.368;11.984;2023-02-21T19:17:19;100433.19;;;20.00;48.08
12913;BME280;6524;51.368;11.984;2023-02-21T19:22:19;100437.81;;;20.09;48.00
12913;BME280;6524;51.368;11.984;2023-02-21T19:27:20;100438.53;;;20.11;48.36
12913;BME280;6524;51.368;11.984;2023-02-21T19:32:20;100444.19;;;20.07;48.71
12913;BME280;6524;51.368;11.984;2023-02-21T19:37:21;100442.94;;;19.87;49.10
12913;BME280;6524;51.368;11.984;2023-02-21T19:42:23;100446.44;;;20.37;47.55
12913;BME280;6524;51.368;11.984;2023-02-21T19:47:23;100455.06;;;20.02;48.82
12913;BME280;6524;51.368;11.984;2023-02-21T19:52:24;100454.34;;;20.13;48.81
12913;BME280;6524;51.368;11.984;2023-02-21T19:57:24;100456.84;;;19.12;50.64
12913;BME280;6524;51.368;11.984;2023-02-21T20:02:25;100454.63;;;17.96;54.23
12913;BME280;6524;51.368;11.984;2023-02-21T20:07:25;100458.63;;;18.31;53.80
12913;BME280;6524;51.368;11.984;2023-02-21T20:12:26;100459.75;;;18.41;53.01
12913;BME280;6524;51.368;11.984;2023-02-21T20:17:26;100471.41;;;18.51;53.08
12913;BME280;6524;51.368;11.984;2023-02-21T20:22:27;100468.94;;;18.21;54.07
12913;BME280;6524;51.368;11.984;2023-02-21T20:27:33;100474.03;;;18.51;53.55
12913;BME280;6524;51.368;11.984;2023-02-21T20:32:33;100478.97;;;18.43;54.06
12913;BME280;6524;51.368;11.984;2023-02-21T20:37:34;100465.72;;;18.57;54.14
12913;BME280;6524;51.368;11.984;2023-02-21T20:42:35;100478.47;;;18.50;53.63
12913;BME280;6524;51.368;11.984;2023-02-21T20:47:36;100476.97;;;18.88;53.54
12913;BME280;6524;51.368;11.984;2023-02-21T20:52:37;100468.41;;;18.70;54.17
12913;BME280;6524;51.368;11.984;2023-02-21T20:57:38;100463.44;;;18.65;53.94
12913;BME280;6524;51.368;11.984;2023-02-21T21:02:38;100466.25;;;18.77;54.07
12913;BME280;6524;51.368;11.984;2023-02-21T21:07:40;100465.53;;;18.60;54.58
12913;BME280;6524;51.368;11.984;2023-02-21T21:12:42;100469.31;;;18.56;54.56
12913;BME280;6524;51.368;11.984;2023-02-21T21:17:42;100466.25;;;18.77;54.47
12913;BME280;6524;51.368;11.984;2023-02-21T21:22:43;100457.00;;;18.84;54.21
12913;BME280;6524;51.368;11.984;2023-02-21T21:27:44;100458.56;;;18.86;54.35
12913;BME280;6524;51.368;11.984;2023-02-21T21:32:44;100457.31;;;18.65;54.63
12913;BME280;6524;51.368;11.984;2023-02-21T21:37:46;100464.16;;;18.82;54.28
12913;BME280;6524;51.368;11.984;2023-02-21T21:42:47;100447.53;;;18.11;56.46
12913;BME280;6524;51.368;11.984;2023-02-21T21:47:49;100457.88;;;18.14;56.63
12913;BME280;6524;51.368;11.984;2023-02-21T21:52:53;100453.47;;;18.56;55.69
12913;BME280;6524;51.368;11.984;2023-02-21T21:57:55;100447.25;;;18.57;55.44
12913;BME280;6524;51.368;11.984;2023-02-21T22:02:59;100444.09;;;18.92;54.27
12913;BME280;6524;51.368;11.984;2023-02-21T22:08:01;100439.75;;;18.64;54.96
12913;BME280;6524;51.368;11.984;2023-02-21T22:13:02;100424.84;;;18.36;55.49
12913;BME280;6524;51.368;11.984;2023-02-21T22:18:16;100417.75;;;18.50;54.99
12913;BME280;6524;51.368;11.984;2023-02-21T22:23:19;100422.06;;;18.52;54.62
12913;BME280;6524;51.368;11.984;2023-02-21T22:28:20;100421.22;;;18.51;54.98
12913;BME280;6524;51.368;11.984;2023-02-21T22:33:20;100422.13;;;18.64;54.54
12913;BME280;6524;51.368;11.984;2023-02-21T22:38:21;100419.56;;;18.36;55.41
12913;BME280;6524;51.368;11.984;2023-02-21T22:43:22;100426.53;;;18.10;56.19
12913;BME280;6524;51.368;11.984;2023-02-21T22:48:23;100431.84;;;18.37;54.54
12913;BME280;6524;51.368;11.984;2023-02-21T22:53:24;100418.59;;;18.51;53.51
12913;BME280;6524;51.368;11.984;2023-02-21T22:58:27;100416.09;;;18.62;53.45
12913;BME280;6524;51.368;11.984;2023-02-21T23:03:28;100410.25;;;18.03;56.15
12913;BME280;6524;51.368;11.984;2023-02-21T23:08:28;100407.63;;;18.57;54.98
12913;BME280;6524;51.368;11.984;2023-02-21T23:13:29;100410.13;;;18.04;56.57
12913;BME280;6524;51.368;11.984;2023-02-21T23:18:29;100406.91;;;18.14;55.88
12913;BME280;6524;51.368;11.984;2023-02-21T23:23:30;100405.88;;;18.70;54.43
12913;BME280;6524;51.368;11.984;2023-02-21T23:28:31;100410.28;;;18.84;54.04
12913;BME280;6524;51.368;11.984;2023-02-21T23:33:33;100407.69;;;18.43;54.68
12913;BME280;6524;51.368;11.984;2023-02-21T23:38:33;100409.09;;;18.61;54.48
12913;BME280;6524;51.368;11.984;2023-02-21T23:43:39;100411.75;;;18.61;53.74
12913;BME280;6524;51.368;11.984;2023-02-21T23:48:40;100410.78;;;18.49;54.39
12913;BME280;6524;51.368;11.984;2023-02-21T23:53:41;100413.41;;;18.77;53.38
12913;BME280;6524;51.368;11.984;2023-02-21T23:58:43;100408.72;;;19.07;52.54
